Time;durP1;ratioP1;P1;durP2;ratioP2;P2;SDS_P1;SDS_P2;PMS_P1;PMS_P2;Temp;Humidity;BMP_temperature;BMP_pressure;BME280_temperature;BME280_humidity;BME280_pressure;Samples;Min_cycle;Max_cycle;Signal;HPM_P1;HPM_P2
2021/03/05 00:01:12;;;;;;;0.70;0.60;;;3.20;99.90;;;3.94;100.00;-20789.22;5053876;28;20251;-72
2021/03/05 00:03:40;;;;;;;0.70;0.60;;;3.20;99.90;;;3.89;100.00;-20787.97;5053767;28;20216;-73
2021/03/05 00:06:09;;;;;;;0.70;0.65;;;3.20;99.90;;;4.03;100.00;-20791.88;5055557;28;20216;-73
2021/03/05 00:08:37;;;;;;;0.70;0.60;;;3.20;99.90;;;3.86;100.00;-20787.25;5050005;28;20317;-73
2021/03/05 00:11:04;;;;;;;0.70;0.70;;;3.20;99.90;;;3.92;100.00;-20788.66;5040404;28;20555;-72
2021/03/05 00:13:31;;;;;;;0.70;0.60;;;3.20;99.90;;;3.87;100.00;-20787.53;5042199;28;20190;-70
2021/03/05 00:15:58;;;;;;;0.70;0.60;;;3.20;99.90;;;3.93;100.00;-20788.94;5053459;28;20185;-71
2021/03/05 00:18:26;;;;;;;0.70;0.60;;;3.20;99.90;;;3.86;100.00;-20787.25;5054986;28;20271;-72
2021/03/05 00:20:54;;;;;;;0.70;0.60;;;3.20;99.90;;;3.77;100.00;-20784.75;5054469;28;20185;-73
2021/03/05 00:23:22;;;;;;;0.70;0.63;;;3.20;99.90;;;3.78;100.00;-20785.03;5051982;28;20482;-72
2021/03/05 00:25:50;;;;;;;0.70;0.65;;;3.10;99.90;;;3.90;100.00;-20788.09;5053300;28;20572;-72
2021/03/05 00:28:19;;;;;;;0.70;0.60;;;3.10;99.90;;;3.79;100.00;-20785.31;5037642;28;20622;-72
2021/03/05 00:30:46;;;;;;;0.70;0.60;;;3.20;99.90;;;3.77;100.00;-20784.63;5045712;28;20197;-73
2021/03/05 00:33:15;;;;;;;0.70;0.60;;;3.20;99.90;;;3.72;100.00;-20783.38;5055277;28;20293;-73
2021/03/05 00:35:54;;;;;;;0.70;0.60;;;3.10;99.90;;;3.84;100.00;-20786.56;5052520;28;20185;-73
2021/03/05 00:38:21;;;;;;;0.70;0.60;;;3.10;99.90;;;3.98;100.00;-20790.34;5042514;28;20659;-72
2021/03/05 00:40:49;;;;;;;0.70;0.63;;;3.20;99.90;;;3.93;100.00;-20788.94;5055038;28;20540;-73
2021/03/05 00:43:16;;;;;;;0.70;0.60;;;3.20;99.90;;;3.83;100.00;-20786.44;5050320;28;20716;-72
2021/03/05 00:45:43;;;;;;;0.70;0.60;;;3.20;99.90;;;3.91;100.00;-20788.38;5045040;28;20201;-72
2021/03/05 00:48:11;;;;;;;0.70;0.60;;;3.20;99.90;;;3.87;100.00;-20787.53;5069535;28;20210;-73
2021/03/05 00:50:39;;;;;;;0.70;0.60;;;3.20;99.90;;;3.84;100.00;-20786.72;5053601;28;20193;-74
2021/03/05 00:53:09;;;;;;;0.70;0.65;;;3.20;99.90;;;3.78;100.00;-20785.03;5052092;28;20186;-72
2021/03/05 00:55:37;;;;;;;0.70;0.65;;;3.10;99.90;;;3.61;100.00;-20780.44;5054703;28;20173;-73
2021/03/05 00:58:12;;;;;;;0.70;0.70;;;3.10;99.90;;;3.51;100.00;-20777.66;5052549;28;20193;-73
2021/03/05 01:00:39;;;;;;;0.70;0.60;;;3.00;99.90;;;3.41;100.00;-20774.72;5054713;28;20239;-73
2021/03/05 01:03:10;;;;;;;0.70;0.60;;;2.90;99.90;;;3.48;100.00;-20776.66;5045003;28;20222;-74
2021/03/05 01:05:38;;;;;;;0.70;0.60;;;2.90;99.90;;;3.31;100.00;-20772.19;5034796;28;20252;-73
2021/03/05 01:08:08;;;;;;;0.70;0.60;;;2.80;99.90;;;3.22;100.00;-20769.69;5036274;28;20292;-74
2021/03/05 01:10:42;;;;;;;0.70;0.60;;;2.80;99.90;;;3.25;100.00;-20770.53;5050904;28;20221;-72
2021/03/05 01:13:09;;;;;;;0.73;0.70;;;2.70;99.90;;;3.28;100.00;-20771.38;5052841;28;20188;-73
2021/03/05 01:15:36;;;;;;;0.70;0.70;;;2.70;99.90;;;3.32;100.00;-20772.34;5054548;28;20613;-73
2021/03/05 01:18:13;;;;;;;0.70;0.70;;;2.70;99.90;;;3.12;100.00;-20766.91;5053602;28;20227;-74
2021/03/05 01:20:40;;;;;;;0.70;0.68;;;2.60;99.90;;;3.17;100.00;-20768.16;5053243;28;20213;-72
2021/03/05 01:23:08;;;;;;;0.70;0.60;;;2.60;99.90;;;3.05;100.00;-20765.09;5043699;28;20654;-73
2021/03/05 01:25:36;;;;;;;0.70;0.60;;;2.60;99.90;;;2.99;100.00;-20763.41;5054163;28;20303;-73
2021/03/05 01:28:03;;;;;;;0.70;0.60;;;2.50;99.90;;;3.01;100.00;-20763.97;5054047;28;20264;-72
2021/03/05 01:30:32;;;;;;;0.70;0.60;;;2.50;99.90;;;3.06;100.00;-20765.38;5052483;28;20251;-73
2021/03/05 01:33:00;;;;;;;0.70;0.60;;;2.50;99.90;;;2.97;100.00;-20762.72;5045653;28;20345;-72
2021/03/05 01:35:29;;;;;;;0.70;0.60;;;2.50;99.90;;;3.04;100.00;-20764.69;5053174;28;20685;-74
2021/03/05 01:37:57;;;;;;;0.70;0.65;;;2.50;99.90;;;3.08;100.00;-20765.94;5051338;28;20224;-71
2021/03/05 01:40:28;;;;;;;0.70;0.60;;;2.60;99.90;;;3.14;100.00;-20767.47;5036890;28;20240;-73
2021/03/05 01:42:55;;;;;;;0.70;0.60;;;2.60;99.90;;;3.17;100.00;-20768.31;5051805;28;20189;-73
2021/03/05 01:45:25;;;;;;;0.70;0.60;;;2.60;99.90;;;3.11;100.00;-20766.63;5053140;28;20193;-73
2021/03/05 01:47:55;;;;;;;1.10;1.00;;;2.60;99.90;;;3.19;100.00;-20768.72;5053791;28;20572;-73
2021/03/05 01:50:32;;;;;;;0.70;0.60;;;2.60;99.90;;;3.20;100.00;-20769.13;5052546;28;20545;-73
2021/03/05 01:53:02;;;;;;;0.70;0.60;;;2.60;99.90;;;3.11;100.00;-20766.63;5044428;28;20186;-71
2021/03/05 01:55:30;;;;;;;0.70;0.60;;;2.60;99.90;;;3.13;100.00;-20767.19;5053935;28;20205;-73
2021/03/05 01:57:58;;;;;;;0.70;0.60;;;2.60;99.90;;;3.21;100.00;-20769.28;5047301;28;20193;-74
2021/03/05 02:00:35;;;;;;;0.70;0.60;;;2.60;99.90;;;3.33;100.00;-20772.63;5053596;28;20192;-73
2021/03/05 02:03:02;;;;;;;0.70;0.60;;;2.60;99.90;;;3.24;100.00;-20770.25;5052043;28;20223;-74
2021/03/05 02:05:30;;;;;;;0.70;0.60;;;2.70;99.90;;;3.31;100.00;-20772.19;5052571;28;20192;-74
2021/03/05 02:07:59;;;;;;;0.70;0.70;;;2.70;99.90;;;3.45;100.00;-20775.84;5050220;28;20204;-73
2021/03/05 02:10:27;;;;;;;0.70;0.60;;;2.70;99.90;;;3.43;100.00;-20775.28;5053208;28;20205;-73
2021/03/05 02:12:53;;;;;;;0.70;0.60;;;2.70;99.90;;;3.50;100.00;-20777.22;5048542;28;20565;-74
2021/03/05 02:15:21;;;;;;;0.70;0.60;;;2.70;99.90;;;3.61;100.00;-20780.44;5032273;28;20209;-74
2021/03/05 02:18:02;;;;;;;0.70;0.60;;;2.80;99.90;;;3.61;100.00;-20780.28;5043482;28;20202;-73
2021/03/05 02:20:40;;;;;;;0.70;0.70;;;2.80;99.90;;;3.58;100.00;-20779.47;5051770;28;20182;-73
2021/03/05 02:23:47;;;;;;;0.70;0.70;;;2.80;99.90;;;3.65;100.00;-20781.41;5048405;28;20186;-73
2021/03/05 02:27:09;;;;;;;0.70;0.60;;;2.80;99.90;;;3.68;100.00;-20782.25;5042233;28;20229;-73
2021/03/05 02:30:24;;;;;;;0.70;0.60;;;2.90;99.90;;;3.55;100.00;-20778.63;4975643;28;20195;-73
2021/03/05 02:32:59;;;;;;;0.70;0.60;;;2.80;99.90;;;3.48;100.00;-20776.66;5009648;28;20287;-74
2021/03/05 02:35:33;;;;;;;0.70;0.70;;;2.80;99.90;;;3.56;100.00;-20778.91;5050994;28;20665;-73
2021/03/05 02:38:04;;;;;;;1.50;1.40;;;2.80;99.90;;;3.41;100.00;-20774.72;5051988;28;20568;-73
2021/03/05 02:40:37;;;;;;;0.70;0.60;;;2.80;99.90;;;3.46;100.00;-20776.09;5036363;28;20198;-73
2021/03/05 02:43:08;;;;;;;0.70;0.60;;;2.80;99.90;;;3.37;100.00;-20773.75;5050091;28;20591;-72
2021/03/05 02:45:39;;;;;;;0.70;0.60;;;2.70;99.90;;;3.39;100.00;-20774.44;5051430;28;20520;-72
2021/03/05 02:48:12;;;;;;;0.70;0.60;;;2.70;99.90;;;3.31;100.00;-20772.19;5052031;28;20201;-72
2021/03/05 02:50:42;;;;;;;0.60;0.60;;;2.70;99.90;;;3.29;100.00;-20771.50;5051539;28;20186;-72
2021/03/05 02:53:13;;;;;;;0.70;0.60;;;2.70;99.90;;;3.37;100.00;-20773.88;5035940;28;20200;-72
2021/03/05 02:55:45;;;;;;;0.70;0.60;;;2.70;99.90;;;3.34;100.00;-20773.03;5051972;28;20213;-73
2021/03/05 02:58:14;;;;;;;0.70;0.60;;;2.60;99.90;;;3.39;100.00;-20774.31;5052093;28;20177;-73
2021/03/05 03:00:43;;;;;;;0.70;0.60;;;2.70;99.90;;;3.41;100.00;-20774.72;5049487;28;20187;-73
2021/03/05 03:03:13;;;;;;;0.70;0.60;;;2.70;99.90;;;3.34;100.00;-20773.03;5043381;28;20217;-73
2021/03/05 03:05:41;;;;;;;0.70;0.60;;;2.70;99.90;;;3.37;100.00;-20773.75;5051698;28;20234;-72
2021/03/05 03:08:10;;;;;;;0.70;0.65;;;2.70;99.90;;;3.50;100.00;-20777.22;5051755;28;20194;-73
2021/03/05 03:10:38;;;;;;;0.70;0.60;;;2.70;99.90;;;3.64;100.00;-20781.13;5034038;28;20182;-73
2021/03/05 03:13:06;;;;;;;0.68;0.57;;;2.70;99.90;;;3.51;100.00;-20777.50;5033083;28;20194;-73
2021/03/05 03:15:34;;;;;;;0.70;0.70;;;2.80;99.90;;;3.50;100.00;-20777.22;5041062;28;20308;-73
2021/03/05 03:18:05;;;;;;;0.70;0.50;;;2.80;99.90;;;3.63;100.00;-20780.84;5045515;28;20275;-72
2021/03/05 03:20:34;;;;;;;0.70;0.60;;;2.80;99.90;;;3.63;100.00;-20780.84;5037740;28;20192;-73
2021/03/05 03:23:04;;;;;;;2.65;1.30;;;2.80;99.90;;;3.54;100.00;-20778.34;5052317;28;20189;-73
2021/03/05 03:25:31;;;;;;;0.75;0.75;;;2.80;99.90;;;3.59;100.00;-20779.75;5032815;28;20202;-73
2021/03/05 03:27:58;;;;;;;1.13;1.02;;;2.80;99.90;;;3.57;100.00;-20779.31;5031297;28;20218;-73
2021/03/05 03:30:26;;;;;;;0.70;0.60;;;2.90;99.90;;;3.56;100.00;-20778.91;5044105;28;20259;-72
2021/03/05 03:32:54;;;;;;;0.60;0.50;;;2.90;99.90;;;3.73;100.00;-20783.66;5043749;28;20194;-73
2021/03/05 03:35:22;;;;;;;0.70;0.70;;;2.90;99.90;;;3.71;100.00;-20782.94;5051330;28;20212;-73
2021/03/05 03:38:10;;;;;;;0.70;0.60;;;2.90;99.90;;;3.60;100.00;-20780.00;5038388;28;20200;-73
2021/03/05 03:40:40;;;;;;;0.70;0.60;;;2.90;99.90;;;3.59;100.00;-20779.75;5034195;28;20197;-73
2021/03/05 03:43:07;;;;;;;0.70;0.70;;;2.90;99.90;;;3.62;100.00;-20780.56;5036413;28;20190;-73
2021/03/05 03:45:38;;;;;;;0.70;0.70;;;3.00;99.90;;;3.69;100.00;-20782.53;5055828;28;20200;-72
2021/03/05 03:48:08;;;;;;;1.13;0.85;;;3.00;99.90;;;3.70;100.00;-20782.66;5055427;28;20309;-73
2021/03/05 03:50:43;;;;;;;0.70;0.70;;;3.00;99.90;;;3.66;100.00;-20781.69;5055974;28;20181;-73
2021/03/05 03:53:15;;;;;;;0.68;0.60;;;3.00;99.90;;;3.68;100.00;-20782.25;5052706;28;20229;-73
2021/03/05 03:55:48;;;;;;;0.70;0.60;;;3.00;99.90;;;3.80;100.00;-20785.47;5055908;28;20574;-73
2021/03/05 03:58:18;;;;;;;0.70;0.60;;;3.00;99.90;;;3.86;100.00;-20787.13;5055774;28;20182;-73
2021/03/05 04:00:46;;;;;;;0.70;0.60;;;3.10;99.90;;;3.85;100.00;-20787.00;5055210;28;20186;-73
2021/03/05 04:03:17;;;;;;;0.70;0.60;;;3.10;99.90;;;3.75;100.00;-20784.19;5055223;28;20570;-73
2021/03/05 04:05:46;;;;;;;0.70;0.60;;;3.00;99.90;;;3.73;100.00;-20783.66;5055535;28;20174;-74
2021/03/05 04:08:34;;;;;;;0.70;0.60;;;3.00;99.90;;;3.70;100.00;-20782.81;5054357;28;20192;-73
2021/03/05 04:11:05;;;;;;;0.70;0.60;;;3.00;99.90;;;3.70;100.00;-20782.66;5052553;28;20192;-73
2021/03/05 04:13:35;;;;;;;0.70;0.60;;;3.00;99.90;;;3.66;100.00;-20781.69;5053520;28;20186;-73
2021/03/05 04:16:03;;;;;;;0.68;0.60;;;3.00;99.90;;;3.70;100.00;-20782.81;5055498;28;20192;-73
2021/03/05 04:18:32;;;;;;;0.60;0.50;;;3.00;99.90;;;3.78;100.00;-20784.91;5046702;28;20288;-73
2021/03/05 04:21:04;;;;;;;0.70;0.60;;;3.00;99.90;;;3.72;100.00;-20783.38;5035494;28;20190;-74
2021/03/05 04:23:34;;;;;;;0.70;0.60;;;3.10;99.90;;;3.67;100.00;-20781.97;5050756;28;20243;-73
2021/03/05 04:26:01;;;;;;;0.70;0.60;;;3.00;99.90;;;3.64;100.00;-20781.13;5055411;28;20219;-73
2021/03/05 04:28:28;;;;;;;0.70;0.60;;;2.90;99.90;;;3.48;100.00;-20776.81;5054897;28;20711;-73
2021/03/05 04:30:56;;;;;;;0.70;0.60;;;2.80;99.90;;;3.36;100.00;-20773.47;5039591;28;20194;-72
2021/03/05 04:33:24;;;;;;;0.70;0.70;;;2.80;99.90;;;3.27;100.00;-20771.09;5049970;28;20214;-73
2021/03/05 04:35:51;;;;;;;0.70;0.60;;;2.70;99.90;;;3.18;100.00;-20768.59;5055201;28;20208;-73
2021/03/05 04:38:18;;;;;;;0.70;0.60;;;2.60;99.90;;;3.05;100.00;-20764.94;5052328;28;20188;-73
2021/03/05 04:40:46;;;;;;;0.70;0.70;;;2.50;99.90;;;3.05;100.00;-20764.94;5053237;28;20302;-73
2021/03/05 04:43:13;;;;;;;0.70;0.70;;;2.50;99.90;;;3.10;100.00;-20766.34;5054945;28;20186;-73
2021/03/05 04:45:40;;;;;;;0.70;0.60;;;2.60;99.90;;;2.92;100.00;-20761.31;5055064;28;20290;-73
2021/03/05 04:48:08;;;;;;;2.83;1.23;;;2.40;99.90;;;2.82;100.00;-20758.81;5052284;28;20224;-70
2021/03/05 04:50:36;;;;;;;0.70;0.65;;;2.40;99.90;;;2.78;100.00;-20757.69;5070955;28;20288;-74
2021/03/05 04:53:05;;;;;;;0.70;0.65;;;2.30;99.90;;;2.86;100.00;-20759.78;5055741;28;20190;-73
2021/03/05 04:55:32;;;;;;;0.70;0.60;;;2.40;99.90;;;2.89;100.00;-20760.75;5057726;28;20558;-73
2021/03/05 04:58:00;;;;;;;0.70;0.60;;;2.30;99.90;;;2.78;100.00;-20757.69;5054269;28;20277;-73
2021/03/05 05:00:28;;;;;;;0.90;0.90;;;2.30;99.90;;;2.99;100.00;-20763.41;5043049;28;20195;-73
2021/03/05 05:02:56;;;;;;;2.08;1.33;;;2.50;99.90;;;2.94;100.00;-20761.88;5041581;28;20231;-73
2021/03/05 05:05:23;;;;;;;0.70;0.68;;;2.40;99.90;;;2.98;100.00;-20763.13;5051643;28;20194;-74
2021/03/05 05:07:51;;;;;;;0.70;0.60;;;2.40;99.90;;;2.94;100.00;-20761.88;5049936;28;20255;-74
2021/03/05 05:10:19;;;;;;;0.70;0.60;;;2.40;99.90;;;2.95;100.00;-20762.16;5051803;28;20186;-73
2021/03/05 05:12:45;;;;;;;0.70;0.60;;;2.40;99.90;;;2.99;100.00;-20763.28;5048265;28;20650;-73
2021/03/05 05:15:14;;;;;;;0.70;0.70;;;2.40;99.90;;;3.05;100.00;-20764.94;5054972;28;20193;-73
2021/03/05 05:17:41;;;;;;;0.70;0.68;;;2.50;99.90;;;3.15;100.00;-20767.75;5052130;28;20663;-71
2021/03/05 05:20:11;;;;;;;0.70;0.60;;;2.50;99.90;;;3.28;100.00;-20771.22;5053879;28;20256;-74
2021/03/05 05:22:38;;;;;;;0.70;0.60;;;2.60;99.90;;;3.25;100.00;-20770.41;5038203;28;20657;-73
2021/03/05 05:25:07;;;;;;;0.70;0.60;;;2.70;99.90;;;3.42;100.00;-20775.00;5049180;28;20454;-72
2021/03/05 05:27:34;;;;;;;0.70;0.60;;;2.80;99.90;;;3.42;100.00;-20775.00;5035919;28;20206;-73
2021/03/05 05:30:02;;;;;;;0.70;0.60;;;2.90;99.90;;;3.52;100.00;-20777.78;5050511;28;20554;-74
2021/03/05 05:32:30;;;;;;;0.68;0.60;;;2.90;99.90;;;3.57;100.00;-20779.19;5055782;28;20281;-70
2021/03/05 05:34:57;;;;;;;0.70;0.60;;;2.90;99.90;;;3.56;100.00;-20779.03;5056973;28;20248;-73
2021/03/05 05:37:24;;;;;;;1.52;1.20;;;2.90;99.90;;;3.52;100.00;-20777.78;5056641;28;20235;-73
2021/03/05 05:39:51;;;;;;;0.70;0.70;;;2.90;99.90;;;3.49;100.00;-20777.09;5051288;28;20644;-72
2021/03/05 05:42:18;;;;;;;0.70;0.60;;;2.90;99.90;;;3.62;100.00;-20780.56;5036625;28;20285;-74
2021/03/05 05:44:48;;;;;;;0.70;0.60;;;2.90;99.90;;;3.59;100.00;-20779.75;5035844;28;20203;-73
2021/03/05 05:47:16;;;;;;;0.70;0.70;;;2.90;99.90;;;3.47;100.00;-20776.41;5053654;28;20198;-73
2021/03/05 05:49:45;;;;;;;0.70;0.60;;;2.90;99.90;;;3.46;100.00;-20776.09;5051728;28;20676;-73
2021/03/05 05:52:20;;;;;;;0.70;0.60;;;2.80;99.90;;;3.35;100.00;-20773.19;5053480;28;20193;-73
2021/03/05 05:54:48;;;;;;;0.70;0.60;;;2.80;99.90;;;3.35;100.00;-20773.31;5042244;28;20194;-73
2021/03/05 05:57:16;;;;;;;0.70;0.70;;;2.80;99.90;;;3.35;100.00;-20773.31;5051709;28;20198;-73
2021/03/05 05:59:45;;;;;;;0.70;0.60;;;2.80;99.90;;;3.39;100.00;-20774.44;5053665;28;20170;-73
2021/03/05 06:02:13;;;;;;;0.70;0.60;;;2.80;99.90;;;3.38;100.00;-20774.03;5053719;28;20189;-72
2021/03/05 06:04:41;;;;;;;0.70;0.60;;;2.80;99.90;;;3.39;100.00;-20774.31;5053464;28;20212;-73
2021/03/05 06:07:09;;;;;;;0.70;0.70;;;2.80;99.90;;;3.34;100.00;-20773.03;5051754;28;20205;-73
2021/03/05 06:09:36;;;;;;;0.77;0.77;;;2.80;99.90;;;3.38;100.00;-20774.16;5053537;28;20208;-73
2021/03/05 06:12:12;;;;;;;0.70;0.60;;;2.80;99.90;;;3.41;100.00;-20774.72;5052331;28;20185;-73
2021/03/05 06:14:40;;;;;;;0.70;0.60;;;2.80;99.90;;;3.46;100.00;-20776.09;5053410;28;20185;-74
2021/03/05 06:17:07;;;;;;;0.70;0.60;;;2.80;99.90;;;3.44;100.00;-20775.69;5052904;28;20257;-73
2021/03/05 06:19:35;;;;;;;0.70;0.70;;;2.80;99.90;;;3.50;100.00;-20777.22;5053906;28;20232;-74
2021/03/05 06:22:17;;;;;;;0.70;0.60;;;2.80;99.90;;;3.45;100.00;-20775.97;5050270;28;20197;-73
2021/03/05 06:24:44;;;;;;;0.70;0.60;;;2.80;99.90;;;3.36;100.00;-20773.47;5047087;28;20259;-74
2021/03/05 06:27:12;;;;;;;0.70;0.60;;;2.80;99.90;;;3.41;100.00;-20774.72;5051983;28;20300;-73
2021/03/05 06:29:41;;;;;;;0.70;0.60;;;2.80;99.90;;;3.36;100.00;-20773.59;5046614;28;20595;-73
2021/03/05 06:32:13;;;;;;;0.70;0.60;;;2.80;99.90;;;3.45;100.00;-20775.97;5033420;28;20197;-74
2021/03/05 06:34:46;;;;;;;0.70;0.60;;;2.80;99.90;;;3.44;100.00;-20775.56;5044353;28;20260;-73
2021/03/05 06:37:14;;;;;;;1.45;1.35;;;2.70;99.90;;;3.50;100.00;-20777.22;5052973;28;20170;-73
2021/03/05 06:39:42;;;;;;;0.70;0.60;;;2.80;99.90;;;3.47;100.00;-20776.41;5054992;28;20302;-73
2021/03/05 06:42:12;;;;;;;0.70;0.60;;;2.80;99.90;;;3.52;100.00;-20777.94;5046228;28;20642;-74
2021/03/05 06:44:41;;;;;;;0.70;0.60;;;2.80;99.90;;;3.42;100.00;-20775.13;5043751;28;20220;-73
2021/03/05 06:47:14;;;;;;;0.70;0.60;;;2.80;99.90;;;3.35;100.00;-20773.31;5053283;28;20233;-73
2021/03/05 06:49:47;;;;;;;0.65;0.60;;;2.80;99.90;;;3.45;100.00;-20775.84;5053276;28;20299;-73
2021/03/05 06:52:16;;;;;;;0.70;0.60;;;2.70;99.90;;;3.44;100.00;-20775.56;5052631;28;20979;-73
2021/03/05 06:54:46;;;;;;;0.70;0.60;;;2.70;99.90;;;3.26;100.00;-20770.81;5049447;28;20189;-74
2021/03/05 06:57:25;;;;;;;0.70;0.60;;;2.70;99.90;;;3.35;100.00;-20773.19;5053059;28;20183;-73
2021/03/05 06:59:52;;;;;;;0.63;0.60;;;2.70;99.90;;;3.44;100.00;-20775.56;5053311;28;20634;-73
2021/03/05 07:02:29;;;;;;;0.65;0.57;;;2.70;99.90;;;3.34;100.00;-20773.03;5052395;28;20194;-74
2021/03/05 07:04:56;;;;;;;0.60;0.60;;;2.70;99.90;;;3.44;100.00;-20775.56;5052837;28;20572;-74
2021/03/05 07:07:24;;;;;;;0.70;0.60;;;2.70;99.90;;;3.18;100.00;-20768.59;5068179;28;20679;-69
2021/03/05 07:09:53;;;;;;;0.70;0.65;;;2.60;99.90;;;3.11;100.00;-20766.63;5054935;28;20207;-74
2021/03/05 07:12:24;;;;;;;0.70;0.60;;;2.60;99.90;;;2.86;100.00;-20759.78;5052006;28;20194;-74
2021/03/05 07:15:02;;;;;;;0.70;0.60;;;2.40;99.90;;;2.81;100.00;-20758.53;5053390;28;20181;-73
2021/03/05 07:17:29;;;;;;;0.70;0.60;;;2.30;99.90;;;2.87;100.00;-20760.22;5053587;28;20198;-74
2021/03/05 07:19:58;;;;;;;0.70;0.68;;;2.40;99.90;;;2.90;100.00;-20761.03;5055800;28;20255;-74
2021/03/05 07:22:27;;;;;;;0.70;0.65;;;2.40;99.90;;;2.97;100.00;-20762.72;5056540;28;20186;-74
2021/03/05 07:25:01;;;;;;;0.70;0.60;;;2.50;99.90;;;3.04;100.00;-20764.81;5056115;28;20703;-74
2021/03/05 07:27:37;;;;;;;0.70;0.60;;;2.50;99.90;;;2.96;100.00;-20762.44;5056545;28;20198;-74
2021/03/05 07:30:25;;;;;;;0.70;0.60;;;2.40;99.90;;;2.88;100.00;-20760.34;5056057;28;20182;-74
2021/03/05 07:32:56;;;;;;;0.70;0.60;;;2.40;99.90;;;2.80;100.00;-20758.13;5056650;28;20236;-74
2021/03/05 07:35:31;;;;;;;1.10;1.00;;;2.30;99.90;;;2.66;100.00;-20754.34;5056556;28;20173;-73
2021/03/05 07:38:01;;;;;;;0.70;0.60;;;2.20;99.90;;;2.68;100.00;-20754.91;5055919;28;20587;-72
2021/03/05 07:40:31;;;;;;;0.70;0.60;;;2.20;99.90;;;2.58;100.00;-20752.13;5056585;28;20252;-73
2021/03/05 07:42:59;;;;;;;0.70;0.70;;;2.20;99.90;;;2.61;100.00;-20753.09;5054956;28;20182;-74
2021/03/05 07:45:28;;;;;;;0.70;0.60;;;2.20;99.90;;;2.60;100.00;-20752.81;5055574;28;20554;-74
2021/03/05 07:47:57;;;;;;;0.70;0.60;;;2.20;99.90;;;2.75;100.00;-20756.72;5056603;28;20247;-74
2021/03/05 07:50:26;;;;;;;0.80;0.70;;;2.30;99.90;;;2.66;100.00;-20754.34;5056165;28;20641;-74
2021/03/05 07:52:58;;;;;;;0.73;0.70;;;2.30;99.90;;;2.82;100.00;-20758.81;5056272;28;20238;-74
2021/03/05 07:55:36;;;;;;;0.70;0.70;;;2.30;99.90;;;2.80;100.00;-20758.25;5055796;28;20243;-74
2021/03/05 07:58:04;;;;;;;0.70;0.60;;;2.30;99.90;;;2.92;100.00;-20761.47;5054692;28;20236;-74
2021/03/05 08:00:47;;;;;;;0.70;0.70;;;2.40;99.90;;;2.93;100.00;-20761.59;5054660;28;20190;-74
2021/03/05 08:03:18;;;;;;;0.70;0.70;;;2.40;99.90;;;2.92;100.00;-20761.47;5054491;28;20304;-74
2021/03/05 08:05:47;;;;;;;0.70;0.60;;;2.50;99.90;;;2.76;100.00;-20757.13;5055812;28;20182;-73
2021/03/05 08:08:23;;;;;;;0.70;0.70;;;2.40;99.90;;;2.79;100.00;-20757.97;5061834;28;20219;-73
2021/03/05 08:10:56;;;;;;;1.48;1.38;;;2.40;99.90;;;3.00;100.00;-20763.56;5055840;28;20162;-73
2021/03/05 08:13:51;;;;;;;0.75;0.70;;;2.50;99.90;;;3.07;100.00;-20765.66;5040958;28;20178;-74
2021/03/05 08:16:45;;;;;;;0.77;0.70;;;2.60;99.90;;;3.17;100.00;-20768.31;5035795;28;20232;-73
2021/03/05 08:19:43;;;;;;;0.70;0.60;;;2.80;99.90;;;3.15;100.00;-20767.88;5070424;28;20215;-74
2021/03/05 08:22:16;;;;;;;0.70;0.60;;;2.80;99.90;;;3.27;100.00;-20771.09;5075151;28;20250;-73
2021/03/05 08:24:43;;;;;;;0.70;0.60;;;2.90;99.90;;;3.60;100.00;-20780.00;5060502;28;20208;-74
2021/03/05 08:27:36;;;;;;;0.70;0.60;;;3.00;99.90;;;3.99;100.00;-20790.63;5055387;28;20190;-74
2021/03/05 08:30:20;;;;;;;0.70;0.60;;;3.30;99.90;;;4.07;100.00;-20792.84;5060719;28;20588;-73
2021/03/05 08:32:57;;;;;;;0.70;0.70;;;3.60;99.90;;;4.53;100.00;-20805.38;5075516;28;20185;-74
2021/03/05 08:35:45;;;;;;;0.70;0.63;;;3.60;99.90;;;4.52;100.00;-20805.09;5054642;28;20196;-74
2021/03/05 08:38:19;;;;;;;0.70;0.60;;;3.80;99.90;;;4.66;100.00;-20808.88;5054416;28;20193;-74
2021/03/05 08:40:55;;;;;;;0.70;0.60;;;3.90;99.90;;;4.96;100.00;-20817.22;5054993;28;20267;-73
2021/03/05 08:43:25;;;;;;;0.70;0.50;;;4.00;99.90;;;4.85;100.00;-20814.16;5044869;28;20185;-73
2021/03/05 08:45:54;;;;;;;0.70;0.60;;;4.20;99.90;;;4.69;100.00;-20809.84;5034459;28;20290;-73
2021/03/05 08:48:38;;;;;;;0.80;0.77;;;4.10;99.90;;;4.98;100.00;-20817.63;5043632;28;20733;-73
2021/03/05 08:51:17;;;;;;;0.70;0.60;;;4.30;99.90;;;5.41;100.00;-20829.31;5053705;28;20490;-74
2021/03/05 08:53:47;;;;;;;0.70;0.60;;;4.40;99.90;;;5.39;100.00;-20828.91;5054531;28;20211;-75
2021/03/05 08:56:23;;;;;;;0.70;0.60;;;4.60;99.90;;;5.29;100.00;-20826.13;5054839;28;20436;-75
2021/03/05 08:59:00;;;;;;;0.70;0.60;;;4.80;99.90;;;5.59;100.00;-20834.34;5054890;28;20416;-73
2021/03/05 09:01:35;;;;;;;0.70;0.60;;;4.70;99.90;;;5.82;100.00;-20840.75;5052743;28;20441;-74
2021/03/05 09:04:13;;;;;;;0.70;0.60;;;4.70;99.90;;;5.46;100.00;-20830.72;5054532;28;20511;-75
2021/03/05 09:06:50;;;;;;;0.70;0.60;;;4.60;99.90;;;5.77;100.00;-20839.34;5053099;28;20463;-75
2021/03/05 09:09:19;;;;;;;0.70;0.70;;;4.90;99.90;;;5.97;100.00;-20844.63;5053783;28;20435;-73
2021/03/05 09:12:02;;;;;;;0.73;0.70;;;5.20;99.90;;;6.25;100.00;-20852.41;5053204;28;20436;-73
2021/03/05 09:14:30;;;;;;;0.70;0.60;;;5.40;99.90;;;6.83;100.00;-20868.00;5051226;28;20461;-72
2021/03/05 09:16:59;;;;;;;0.70;0.60;;;5.80;99.90;;;7.48;100.00;-20885.78;5045127;28;20428;-75
2021/03/05 09:19:36;;;;;;;0.80;0.70;;;6.20;99.90;;;7.56;100.00;-20888.00;5054672;28;20993;-69
2021/03/05 09:22:10;;;;;;;0.70;0.60;;;6.40;99.90;;;8.47;100.00;-20912.69;5046120;28;20442;-73
2021/03/05 09:24:53;;;;;;;0.77;0.63;;;6.50;99.90;;;8.80;100.00;-20921.56;5054216;28;20806;-73
2021/03/05 09:27:22;;;;;;;0.80;0.63;;;7.20;99.90;;;9.80;100.00;-20948.72;5053516;28;20533;-75
2021/03/05 09:29:51;;;;;;;0.70;0.70;;;7.30;99.90;;;8.04;100.00;-20900.91;5052779;28;20443;-74
2021/03/05 09:32:18;;;;;;;0.70;0.60;;;6.80;99.90;;;8.96;100.00;-20926.00;5054309;28;20475;-74
2021/03/05 09:34:55;;;;;;;0.80;0.70;;;7.20;99.90;;;9.91;100.00;-20951.78;5054255;28;20455;-75
2021/03/05 09:37:24;;;;;;;0.70;0.60;;;7.80;99.90;;;9.34;100.00;-20936.25;5054383;28;20579;-75
2021/03/05 09:39:54;;;;;;;0.70;0.60;;;7.60;99.90;;;7.30;100.00;-20880.78;5052573;28;20450;-74
2021/03/05 09:42:50;;;;;;;0.70;0.70;;;6.50;99.90;;;6.52;100.00;-20859.78;5047527;28;20432;-74
2021/03/05 09:45:38;;;;;;;1.10;1.00;;;5.60;99.90;;;6.05;100.00;-20847.00;5033764;28;20755;-73
2021/03/05 09:48:09;;;;;;;0.70;0.60;;;4.90;99.90;;;6.07;100.00;-20847.28;5034102;28;20542;-73
2021/03/05 09:50:39;;;;;;;0.70;0.60;;;5.10;99.90;;;6.66;100.00;-20863.53;5033875;28;20515;-73
2021/03/05 09:53:26;;;;;;;1.57;0.77;;;5.90;99.90;;;7.43;100.00;-20884.38;5035305;28;20519;-73
2021/03/05 09:55:56;;;;;;;0.70;0.70;;;6.20;99.90;;;8.37;100.00;-20909.91;5053963;28;20774;-73
2021/03/05 09:58:23;;;;;;;0.70;0.70;;;6.80;99.90;;;8.14;100.00;-20903.81;5052873;28;20955;-73
2021/03/05 10:00:53;;;;;;;0.70;0.60;;;7.20;99.90;;;8.20;100.00;-20905.47;5053440;28;20444;-73
2021/03/05 10:03:21;;;;;;;0.70;0.60;;;7.00;99.90;;;8.21;100.00;-20905.75;5053655;28;20540;-73
2021/03/05 10:05:50;;;;;;;0.80;0.70;;;7.20;99.90;;;9.45;100.00;-20939.31;5053834;28;20449;-73
2021/03/05 10:08:20;;;;;;;0.70;0.63;;;7.40;99.90;;;9.78;100.00;-20948.31;5053119;28;20467;-73
2021/03/05 10:10:57;;;;;;;0.70;0.60;;;7.90;99.90;;;10.95;100.00;-20979.84;5052292;28;20408;-73
2021/03/05 10:13:47;;;;;;;0.73;0.60;;;8.50;99.90;;;10.52;100.00;-20968.38;5043637;28;20436;-74
2021/03/05 10:16:20;;;;;;;0.70;0.60;;;8.30;99.90;;;9.59;100.00;-20943.19;5033632;28;20461;-72
2021/03/05 10:18:51;;;;;;;0.80;0.70;;;8.20;99.90;;;8.17;100.00;-20904.66;5051776;28;20472;-73
2021/03/05 10:21:21;;;;;;;0.80;0.70;;;7.40;99.90;;;8.52;100.00;-20913.94;5053396;28;20422;-73
2021/03/05 10:23:48;;;;;;;0.70;0.60;;;7.60;99.90;;;9.37;100.00;-20937.22;5052297;28;20539;-73
2021/03/05 10:26:22;;;;;;;0.80;0.80;;;7.60;99.90;;;9.80;100.00;-20948.72;5053344;28;20789;-74
2021/03/05 10:28:59;;;;;;;0.80;0.63;;;8.10;99.90;;;10.10;100.00;-20957.03;5052878;28;20538;-73
2021/03/05 10:31:47;;;;;;;0.70;0.70;;;8.50;99.90;;;9.91;100.00;-20951.91;5068923;28;20556;-74
2021/03/05 10:34:27;;;;;;;0.77;0.60;;;8.30;99.90;;;9.84;100.00;-20949.97;5073318;28;20448;-73
2021/03/05 10:36:58;;;;;;;0.80;0.60;;;8.80;99.90;;;9.88;100.00;-20951.06;5061842;28;20452;-73
2021/03/05 10:39:28;;;;;;;0.80;0.60;;;8.70;99.90;;;9.66;100.00;-20944.97;5052795;28;21018;-73